Time;durP1;ratioP1;P1;durP2;ratioP2;P2;SDS_P1;SDS_P2;PMS_P1;PMS_P2;Temp;Humidity;BMP_temperature;BMP_pressure;BME280_temperature;BME280_humidity;BME280_pressure;Samples;Min_cycle;Max_cycle;Signal;HPM_P1;HPM_P2
2022/03/26 00:01:51;;;;;;;38.20;21.67;;;6.90;99.90;;;;;;4999411;28;20508;-66
2022/03/26 00:04:18;;;;;;;42.15;22.35;;;6.90;99.90;;;;;;4998943;28;20038;-65
2022/03/26 00:06:46;;;;;;;42.35;21.95;;;6.80;99.90;;;;;;5012269;28;20050;-66
2022/03/26 00:09:13;;;;;;;42.55;22.30;;;6.80;99.90;;;;;;5011506;28;20469;-66
2022/03/26 00:11:40;;;;;;;41.47;21.67;;;6.80;99.90;;;;;;5002049;28;20489;-67
2022/03/26 00:14:11;;;;;;;38.97;21.35;;;6.80;99.90;;;;;;4995453;28;20050;-67
2022/03/26 00:16:38;;;;;;;34.72;20.10;;;6.70;99.90;;;;;;5009335;28;20141;-66
2022/03/26 00:19:05;;;;;;;37.78;19.48;;;6.60;99.90;;;;;;4993594;28;20439;-67
2022/03/26 00:21:33;;;;;;;36.13;20.10;;;6.60;99.90;;;;;;4991734;28;20042;-67
2022/03/26 00:24:00;;;;;;;40.53;21.38;;;6.50;99.90;;;;;;4991558;28;20042;-67
2022/03/26 00:26:27;;;;;;;40.97;20.63;;;6.50;99.90;;;;;;5003105;28;20042;-66
2022/03/26 00:28:55;;;;;;;40.08;20.58;;;6.40;99.90;;;;;;4995485;28;20124;-66
2022/03/26 00:31:22;;;;;;;38.97;20.48;;;6.40;99.90;;;;;;4995300;28;20417;-66
2022/03/26 00:33:49;;;;;;;36.00;19.38;;;6.30;99.90;;;;;;5006377;28;20370;-67
2022/03/26 00:36:17;;;;;;;39.45;19.67;;;6.30;99.90;;;;;;5005742;28;20033;-67
2022/03/26 00:38:45;;;;;;;34.47;19.73;;;6.20;99.90;;;;;;5000426;28;20049;-65
2022/03/26 00:41:12;;;;;;;37.50;19.17;;;6.20;99.90;;;;;;4996690;28;20145;-65
2022/03/26 00:43:40;;;;;;;35.67;19.25;;;6.10;99.90;;;;;;5001407;28;20042;-66
2022/03/26 00:46:07;;;;;;;35.65;19.08;;;6.10;99.90;;;;;;4994336;28;20509;-66
2022/03/26 00:48:35;;;;;;;36.95;19.35;;;6.10;99.90;;;;;;5002081;28;20043;-66
2022/03/26 00:51:03;;;;;;;32.40;19.02;;;6.00;99.90;;;;;;4998731;28;20038;-66
2022/03/26 00:53:30;;;;;;;36.42;19.75;;;6.00;99.90;;;;;;4993149;28;20034;-65
2022/03/26 00:55:57;;;;;;;38.45;19.95;;;6.00;99.90;;;;;;4994735;28;20441;-65
2022/03/26 00:58:25;;;;;;;34.13;19.08;;;5.90;99.90;;;;;;4990559;28;20039;-65
2022/03/26 01:00:53;;;;;;;34.78;19.55;;;5.90;99.90;;;;;;4998074;28;20450;-66
2022/03/26 01:03:21;;;;;;;35.33;20.40;;;5.90;99.90;;;;;;5012888;28;20080;-66
2022/03/26 01:05:48;;;;;;;33.70;19.52;;;5.80;99.90;;;;;;5011523;28;20476;-66
2022/03/26 01:08:16;;;;;;;38.80;19.85;;;5.80;99.90;;;;;;5001864;28;20413;-66
2022/03/26 01:10:44;;;;;;;39.13;20.50;;;5.80;99.90;;;;;;4994832;28;20433;-66
2022/03/26 01:13:13;;;;;;;36.25;19.20;;;5.80;99.90;;;;;;5001547;28;20108;-65
2022/03/26 01:15:40;;;;;;;38.28;20.25;;;5.70;99.90;;;;;;5004558;28;20046;-66
2022/03/26 01:18:09;;;;;;;37.63;18.88;;;5.70;99.90;;;;;;5010877;28;20153;-65
2022/03/26 01:20:37;;;;;;;36.55;18.17;;;5.60;99.90;;;;;;4997607;28;20385;-66
2022/03/26 01:23:05;;;;;;;35.20;17.10;;;5.70;99.90;;;;;;4993365;28;20038;-67
2022/03/26 01:25:32;;;;;;;35.58;18.15;;;5.60;99.90;;;;;;4996614;28;20457;-66
2022/03/26 01:27:59;;;;;;;33.08;17.65;;;5.60;99.90;;;;;;4996540;28;20697;-66
2022/03/26 01:30:26;;;;;;;35.13;18.20;;;5.60;99.90;;;;;;4994005;28;20042;-67
2022/03/26 01:32:55;;;;;;;34.40;18.27;;;5.60;99.90;;;;;;4995948;28;20050;-66
2022/03/26 01:35:22;;;;;;;30.65;17.65;;;5.60;99.90;;;;;;4990474;28;20422;-66
2022/03/26 01:37:50;;;;;;;40.83;22.70;;;5.60;99.90;;;;;;4990478;28;20054;-65
2022/03/26 01:40:17;;;;;;;32.85;18.70;;;5.60;99.90;;;;;;4992784;28;20046;-65
2022/03/26 01:42:45;;;;;;;36.50;18.45;;;5.60;99.90;;;;;;4992727;28;20047;-66
2022/03/26 01:45:14;;;;;;;31.83;17.30;;;5.60;99.90;;;;;;4996298;28;20047;-66
2022/03/26 01:47:41;;;;;;;32.28;17.73;;;5.60;99.90;;;;;;4992289;28;20430;-66
2022/03/26 01:50:08;;;;;;;31.33;18.00;;;5.60;99.90;;;;;;4992152;28;20046;-66
2022/03/26 01:52:36;;;;;;;30.80;16.95;;;5.60;99.90;;;;;;4990176;28;20465;-66
2022/03/26 01:55:04;;;;;;;35.13;17.08;;;5.60;99.90;;;;;;4997116;28;20050;-66
2022/03/26 01:57:32;;;;;;;30.45;17.08;;;5.50;99.90;;;;;;5000866;28;20320;-67
2022/03/26 02:00:01;;;;;;;29.85;15.55;;;5.50;99.90;;;;;;5003334;28;20416;-66
2022/03/26 02:02:45;;;;;;;32.78;18.38;;;5.50;99.90;;;;;;4998216;28;20049;-66
2022/03/26 02:05:18;;;;;;;28.90;15.52;;;5.50;99.90;;;;;;4997705;28;20116;-66
2022/03/26 02:07:49;;;;;;;36.00;18.10;;;5.50;99.90;;;;;;4991760;28;20066;-66
2022/03/26 02:10:18;;;;;;;34.97;17.88;;;5.50;99.90;;;;;;5005016;28;20477;-65
2022/03/26 02:12:47;;;;;;;36.72;18.77;;;5.50;99.90;;;;;;5008585;28;20049;-65
2022/03/26 02:15:15;;;;;;;28.58;17.05;;;5.50;99.90;;;;;;4998672;28;20065;-65
2022/03/26 02:17:43;;;;;;;43.10;22.58;;;5.50;99.90;;;;;;4993525;28;20039;-66
2022/03/26 02:20:12;;;;;;;38.28;19.85;;;5.50;99.90;;;;;;4992496;28;20480;-66
2022/03/26 02:22:40;;;;;;;35.72;19.45;;;5.50;99.90;;;;;;5004843;28;20049;-66
2022/03/26 02:25:09;;;;;;;35.28;19.58;;;5.40;99.90;;;;;;4993772;28;20121;-66
2022/03/26 02:27:37;;;;;;;34.15;17.75;;;5.40;99.90;;;;;;4993470;28;20501;-66
2022/03/26 02:30:06;;;;;;;37.33;20.10;;;5.40;99.90;;;;;;4995595;28;20042;-66
2022/03/26 02:32:33;;;;;;;38.10;19.55;;;5.40;99.90;;;;;;4993412;28;20038;-66
2022/03/26 02:35:01;;;;;;;31.05;17.65;;;5.40;99.90;;;;;;4993688;28;20576;-66
2022/03/26 02:37:31;;;;;;;39.25;18.88;;;5.40;99.90;;;;;;4995616;28;20042;-65
2022/03/26 02:40:00;;;;;;;31.98;17.90;;;5.30;99.90;;;;;;5000882;28;20054;-66
2022/03/26 02:42:28;;;;;;;30.65;17.70;;;5.30;99.90;;;;;;4991220;28;20049;-66
2022/03/26 02:44:55;;;;;;;34.08;18.25;;;5.20;99.90;;;;;;4998718;28;20046;-66
2022/03/26 02:47:23;;;;;;;35.72;17.60;;;5.20;99.90;;;;;;5000034;28;20046;-66
2022/03/26 02:49:50;;;;;;;40.65;19.58;;;5.10;99.90;;;;;;4995661;28;20584;-66
2022/03/26 02:52:18;;;;;;;32.72;17.30;;;5.00;99.90;;;;;;4993337;28;20560;-65
2022/03/26 02:54:45;;;;;;;35.15;18.58;;;5.00;99.90;;;;;;4991382;28;20069;-67
2022/03/26 02:57:12;;;;;;;34.85;18.20;;;4.90;99.90;;;;;;4990313;28;20413;-66
2022/03/26 02:59:40;;;;;;;34.28;17.83;;;4.80;99.90;;;;;;5000700;28;20576;-66
2022/03/26 03:02:09;;;;;;;35.15;18.27;;;4.80;99.90;;;;;;4993227;28;20042;-66
2022/03/26 03:04:38;;;;;;;37.63;18.60;;;4.70;99.90;;;;;;4999483;28;20038;-66
2022/03/26 03:07:06;;;;;;;37.20;19.58;;;4.70;99.90;;;;;;5005750;28;20053;-65
2022/03/26 03:09:33;;;;;;;33.88;18.70;;;4.70;99.90;;;;;;5007464;28;20041;-66
2022/03/26 03:12:00;;;;;;;33.47;19.67;;;4.70;99.90;;;;;;4996786;28;20054;-66
2022/03/26 03:14:28;;;;;;;32.55;17.67;;;4.60;99.90;;;;;;5005304;28;20615;-66
2022/03/26 03:16:55;;;;;;;34.67;17.42;;;4.60;99.90;;;;;;4989876;28;20491;-66
2022/03/26 03:19:22;;;;;;;32.83;17.90;;;4.60;99.90;;;;;;4993334;28;20515;-66
2022/03/26 03:21:50;;;;;;;32.38;18.08;;;4.50;99.90;;;;;;5001995;28;20392;-66
2022/03/26 03:24:17;;;;;;;33.25;18.48;;;4.50;99.90;;;;;;4998851;28;20112;-66
2022/03/26 03:26:45;;;;;;;33.10;17.58;;;4.50;99.90;;;;;;5000013;28;20109;-66
2022/03/26 03:29:12;;;;;;;33.65;17.83;;;4.50;99.90;;;;;;5003094;28;20108;-67
2022/03/26 03:31:44;;;;;;;33.63;17.48;;;4.50;99.90;;;;;;4995160;28;20038;-66
2022/03/26 03:34:12;;;;;;;36.63;18.65;;;4.40;99.90;;;;;;5009975;28;20061;-66
2022/03/26 03:36:39;;;;;;;35.72;18.80;;;4.40;99.90;;;;;;4995963;28;20040;-66
2022/03/26 03:39:06;;;;;;;34.38;18.73;;;4.40;99.90;;;;;;4995381;28;20053;-66
2022/03/26 03:41:34;;;;;;;40.15;19.33;;;4.30;99.90;;;;;;4992595;28;20093;-67
2022/03/26 03:44:02;;;;;;;34.10;18.40;;;4.30;99.90;;;;;;4989429;28;20074;-66
2022/03/26 03:46:33;;;;;;;37.83;19.25;;;4.30;99.90;;;;;;4997098;28;20106;-66
2022/03/26 03:49:01;;;;;;;36.38;18.70;;;4.30;99.90;;;;;;4996881;28;20552;-66
2022/03/26 03:51:29;;;;;;;33.58;17.63;;;4.30;99.90;;;;;;5000914;28;20046;-67
2022/03/26 03:53:56;;;;;;;34.67;18.67;;;4.30;99.90;;;;;;4986255;28;20394;-66
2022/03/26 03:56:23;;;;;;;31.30;16.42;;;4.30;99.90;;;;;;4990629;28;20478;-66
2022/03/26 03:58:50;;;;;;;37.03;19.08;;;4.20;99.90;;;;;;4992202;28;20057;-66
2022/03/26 04:01:18;;;;;;;32.97;18.58;;;4.10;99.90;;;;;;5004125;28;20396;-66
2022/03/26 04:03:45;;;;;;;32.17;17.85;;;4.10;99.90;;;;;;5009619;28;20548;-66
2022/03/26 04:06:13;;;;;;;35.63;18.60;;;4.00;99.90;;;;;;5001605;28;20041;-66
2022/03/26 04:08:41;;;;;;;43.60;21.67;;;4.00;99.90;;;;;;4991027;28;20034;-65
2022/03/26 04:11:09;;;;;;;45.08;22.23;;;4.00;99.90;;;;;;4994443;28;20042;-65
2022/03/26 04:13:36;;;;;;;40.20;21.55;;;4.10;99.90;;;;;;4988706;28;20038;-66
2022/03/26 04:16:04;;;;;;;36.95;19.50;;;4.00;99.90;;;;;;4988856;28;20058;-66
2022/03/26 04:18:32;;;;;;;35.40;18.70;;;4.00;99.90;;;;;;4986383;28;20074;-66
2022/03/26 04:20:59;;;;;;;36.63;18.90;;;4.00;99.90;;;;;;4989152;28;20077;-66
2022/03/26 04:23:27;;;;;;;39.60;19.48;;;4.00;99.90;;;;;;4989188;28;20042;-67
2022/03/26 04:25:54;;;;;;;38.63;20.45;;;4.00;99.90;;;;;;4988565;28;20043;-65
2022/03/26 04:28:21;;;;;;;37.85;19.27;;;4.00;99.90;;;;;;4986915;28;20445;-66
2022/03/26 04:30:48;;;;;;;36.40;18.85;;;3.90;99.90;;;;;;4992490;28;20546;-65
2022/03/26 04:33:16;;;;;;;33.55;19.10;;;3.80;99.90;;;;;;4989992;28;20097;-67
2022/03/26 04:35:43;;;;;;;31.92;18.08;;;3.80;99.90;;;;;;4993548;28;20038;-66
2022/03/26 04:38:11;;;;;;;33.83;18.45;;;3.80;99.90;;;;;;4993175;28;20062;-65
2022/03/26 04:40:38;;;;;;;37.78;18.83;;;3.80;99.90;;;;;;4992816;28;20069;-66
2022/03/26 04:43:06;;;;;;;41.20;20.20;;;3.80;99.90;;;;;;4994927;28;20042;-67
2022/03/26 04:45:34;;;;;;;40.25;19.83;;;3.70;99.90;;;;;;4992436;28;20034;-67
2022/03/26 04:48:01;;;;;;;37.65;19.00;;;3.70;99.90;;;;;;4991526;28;20486;-67
2022/03/26 04:50:28;;;;;;;35.92;18.27;;;3.70;99.90;;;;;;4992194;28;20763;-66
2022/03/26 04:52:56;;;;;;;34.00;19.02;;;3.70;99.90;;;;;;4991640;28;20043;-66
2022/03/26 04:55:23;;;;;;;34.75;18.83;;;3.70;99.90;;;;;;4992838;28;20556;-66
2022/03/26 04:57:51;;;;;;;37.65;19.73;;;3.60;99.90;;;;;;4993158;28;20046;-66
2022/03/26 05:00:19;;;;;;;38.55;19.77;;;3.70;99.90;;;;;;4990629;28;20058;-65
2022/03/26 05:02:47;;;;;;;33.42;18.33;;;3.70;99.90;;;;;;4992014;28;20075;-65
2022/03/26 05:05:15;;;;;;;36.00;19.05;;;3.70;99.90;;;;;;4992298;28;20042;-66
2022/03/26 05:07:45;;;;;;;39.25;19.23;;;3.60;99.90;;;;;;4993682;28;20402;-67
2022/03/26 05:10:14;;;;;;;32.33;17.85;;;3.60;99.90;;;;;;5004388;28;20049;-66
2022/03/26 05:12:43;;;;;;;33.35;18.13;;;3.60;99.90;;;;;;4993634;28;20104;-66
2022/03/26 05:15:11;;;;;;;41.85;21.15;;;3.60;99.90;;;;;;4991624;28;20050;-66
2022/03/26 05:17:38;;;;;;;37.42;19.63;;;3.70;99.90;;;;;;5010461;28;20814;-66
2022/03/26 05:20:07;;;;;;;31.42;17.17;;;3.70;99.90;;;;;;5000062;28;20387;-67
2022/03/26 05:22:34;;;;;;;34.17;17.75;;;3.70;99.90;;;;;;4995123;28;20145;-67
2022/03/26 05:25:02;;;;;;;34.22;17.83;;;3.70;99.90;;;;;;5001054;28;20046;-67
2022/03/26 05:27:29;;;;;;;35.78;18.45;;;3.80;99.90;;;;;;4997778;28;20541;-66
2022/03/26 05:29:57;;;;;;;37.50;18.65;;;3.80;99.90;;;;;;4995676;28;20042;-67
2022/03/26 05:32:24;;;;;;;35.17;18.02;;;3.80;99.90;;;;;;5003186;28;20313;-65
2022/03/26 05:34:51;;;;;;;38.03;19.05;;;3.80;99.90;;;;;;4991345;28;20492;-66
2022/03/26 05:37:19;;;;;;;33.42;18.83;;;3.90;99.90;;;;;;4994003;28;20049;-65
2022/03/26 05:39:47;;;;;;;36.33;18.88;;;3.90;99.90;;;;;;4994106;28;20889;-66
2022/03/26 05:42:15;;;;;;;41.17;19.17;;;3.90;99.90;;;;;;5003495;28;20049;-66
2022/03/26 05:44:42;;;;;;;34.10;18.52;;;3.90;99.90;;;;;;4997472;28;20045;-66
2022/03/26 05:47:10;;;;;;;33.22;18.30;;;4.00;99.90;;;;;;4994934;28;20682;-67
2022/03/26 05:49:37;;;;;;;32.55;17.48;;;4.00;99.90;;;;;;4994073;28;20046;-66
2022/03/26 05:52:05;;;;;;;30.70;16.67;;;4.10;99.90;;;;;;4996686;28;20052;-65
2022/03/26 05:54:33;;;;;;;31.80;18.70;;;4.20;99.90;;;;;;4996361;28;20413;-67
2022/03/26 05:57:00;;;;;;;36.28;19.20;;;4.20;99.90;;;;;;4993154;28;20042;-67
2022/03/26 05:59:28;;;;;;;31.50;18.85;;;4.20;99.90;;;;;;4995726;28;20050;-67
2022/03/26 06:01:55;;;;;;;34.10;18.48;;;4.30;99.90;;;;;;4992490;28;20485;-66
2022/03/26 06:04:23;;;;;;;37.25;19.13;;;4.40;99.90;;;;;;4998620;28;20542;-67
2022/03/26 06:06:50;;;;;;;31.48;18.42;;;4.40;99.90;;;;;;4992512;28;20064;-66
2022/03/26 06:09:18;;;;;;;33.97;18.98;;;4.50;99.90;;;;;;5004223;28;20456;-66
2022/03/26 06:11:45;;;;;;;33.15;17.65;;;4.50;99.90;;;;;;5011477;28;20038;-66
2022/03/26 06:14:12;;;;;;;33.97;17.58;;;4.60;99.90;;;;;;5002512;28;20050;-66
2022/03/26 06:16:39;;;;;;;35.40;18.55;;;4.70;99.90;;;;;;5000716;28;20593;-66
2022/03/26 06:19:07;;;;;;;32.70;17.48;;;4.70;99.90;;;;;;4996421;28;20457;-66
2022/03/26 06:21:34;;;;;;;31.75;18.02;;;4.80;99.90;;;;;;4990242;28;20042;-67
2022/03/26 06:24:02;;;;;;;35.08;18.38;;;4.90;99.90;;;;;;4998064;28;20057;-66
2022/03/26 06:26:30;;;;;;;30.40;18.50;;;5.00;99.90;;;;;;5012134;28;20088;-66
2022/03/26 06:28:58;;;;;;;34.83;18.67;;;5.10;99.90;;;;;;4998745;28;20125;-66
2022/03/26 06:31:25;;;;;;;37.70;18.50;;;5.10;99.90;;;;;;4997822;28;20057;-66
2022/03/26 06:33:52;;;;;;;35.95;19.25;;;5.20;99.90;;;;;;4999993;28;20042;-67
2022/03/26 06:36:20;;;;;;;31.63;18.70;;;5.30;99.90;;;;;;4995019;28;20062;-67
2022/03/26 06:38:47;;;;;;;33.80;18.90;;;5.40;99.90;;;;;;5002091;28;20112;-66
2022/03/26 06:41:16;;;;;;;31.25;18.73;;;5.50;99.90;;;;;;5003301;28;20045;-65
2022/03/26 06:43:44;;;;;;;35.83;20.00;;;5.60;99.90;;;;;;4997314;28;20486;-65
2022/03/26 06:46:12;;;;;;;34.38;19.92;;;5.80;99.90;;;;;;5003645;28;20072;-67
2022/03/26 06:48:39;;;;;;;34.95;19.55;;;5.80;99.90;;;;;;4999035;28;20046;-66
2022/03/26 06:51:08;;;;;;;36.67;18.60;;;5.80;99.90;;;;;;5001390;28;20382;-66
2022/03/26 06:53:36;;;;;;;36.08;19.52;;;5.90;99.90;;;;;;4992537;28;20035;-66
2022/03/26 06:56:06;;;;;;;35.70;19.48;;;5.90;99.90;;;;;;4995463;28;20089;-66
2022/03/26 06:58:34;;;;;;;41.15;19.27;;;6.00;99.90;;;;;;4991117;28;20513;-66
2022/03/26 07:01:02;;;;;;;36.42;19.30;;;6.00;99.90;;;;;;4994579;28;20057;-66
2022/03/26 07:03:30;;;;;;;33.95;18.90;;;6.00;99.90;;;;;;4994740;28;20237;-66
2022/03/26 07:05:58;;;;;;;34.28;19.10;;;6.00;99.90;;;;;;5003900;28;20137;-66
2022/03/26 07:08:27;;;;;;;42.08;20.42;;;6.20;99.90;;;;;;5004222;28;20622;-66
2022/03/26 07:10:55;;;;;;;37.40;19.75;;;6.30;99.90;;;;;;4995174;28;20536;-66
2022/03/26 07:13:22;;;;;;;42.72;20.30;;;6.30;99.90;;;;;;5009190;28;20038;-67
2022/03/26 07:15:49;;;;;;;33.90;19.05;;;6.40;99.90;;;;;;4996986;28;20489;-66
2022/03/26 07:18:16;;;;;;;34.50;19.90;;;6.40;99.90;;;;;;4991867;28;20058;-66
2022/03/26 07:20:44;;;;;;;31.85;18.75;;;6.60;99.90;;;;;;4997620;28;20061;-66
2022/03/26 07:23:11;;;;;;;41.38;20.83;;;6.80;99.90;;;;;;4994314;28;20049;-65
2022/03/26 07:25:38;;;;;;;37.53;20.02;;;6.90;99.90;;;;;;5002399;28;20054;-66
2022/03/26 07:28:07;;;;;;;35.83;19.42;;;7.10;99.90;;;;;;4990167;28;20042;-65
2022/03/26 07:30:34;;;;;;;41.55;20.90;;;7.20;99.90;;;;;;5002217;28;20120;-66
2022/03/26 07:33:02;;;;;;;36.00;19.80;;;7.20;99.90;;;;;;4994227;28;20053;-65
2022/03/26 07:35:33;;;;;;;38.65;20.73;;;7.30;99.90;;;;;;4993019;28;20049;-66
2022/03/26 07:38:00;;;;;;;34.85;19.83;;;7.40;99.90;;;;;;4993159;28;20046;-66
2022/03/26 07:40:28;;;;;;;35.65;19.33;;;7.50;99.90;;;;;;4997220;28;20050;-66
2022/03/26 07:42:56;;;;;;;39.38;19.20;;;7.70;99.90;;;;;;5005409;28;20054;-67
2022/03/26 07:45:23;;;;;;;38.55;21.85;;;7.80;99.90;;;;;;4993620;28;20062;-66
2022/03/26 07:47:50;;;;;;;40.55;21.13;;;7.90;99.90;;;;;;4989238;28;20053;-66
2022/03/26 07:50:22;;;;;;;35.15;19.25;;;8.10;99.90;;;;;;5003695;28;20559;-66
2022/03/26 07:52:49;;;;;;;36.17;19.85;;;8.30;99.90;;;;;;5008747;28;20120;-65
2022/03/26 07:55:17;;;;;;;34.72;19.38;;;8.50;99.90;;;;;;5003476;28;20481;-66
2022/03/26 07:57:44;;;;;;;35.35;20.80;;;8.60;99.90;;;;;;4990110;28;20053;-66
2022/03/26 08:00:12;;;;;;;36.50;20.52;;;8.90;99.90;;;;;;5004698;28;20113;-65
2022/03/26 08:02:39;;;;;;;39.80;22.33;;;9.10;99.90;;;;;;5002850;28;20038;-66
2022/03/26 08:05:07;;;;;;;43.08;22.83;;;9.30;99.90;;;;;;4996949;28;20485;-65
2022/03/26 08:07:34;;;;;;;37.70;21.02;;;9.40;99.90;;;;;;5008752;28;20041;-66
2022/03/26 08:10:01;;;;;;;44.47;24.52;;;9.60;99.90;;;;;;5006714;28;20061;-66
2022/03/26 08:12:29;;;;;;;36.15;21.48;;;9.70;99.90;;;;;;5007301;28;20102;-66
2022/03/26 08:14:56;;;;;;;38.65;23.25;;;9.80;99.90;;;;;;5000906;28;20042;-66
2022/03/26 08:17:25;;;;;;;39.72;22.40;;;10.00;99.90;;;;;;5011247;28;20042;-67
2022/03/26 08:19:52;;;;;;;44.20;24.83;;;10.10;99.90;;;;;;5000413;28;20516;-67
2022/03/26 08:22:20;;;;;;;43.05;22.77;;;10.30;99.90;;;;;;4994205;28;20056;-66
2022/03/26 08:24:47;;;;;;;37.75;22.55;;;10.40;99.90;;;;;;4996338;28;20408;-66
2022/03/26 08:27:14;;;;;;;45.75;23.38;;;10.50;99.90;;;;;;4995730;28;20421;-66
2022/03/26 08:29:42;;;;;;;35.85;20.95;;;10.60;99.90;;;;;;4994061;28;20409;-66
2022/03/26 08:32:09;;;;;;;45.58;24.70;;;10.80;99.90;;;;;;4975661;28;20066;-66
2022/03/26 08:34:37;;;;;;;47.60;27.73;;;11.00;99.90;;;;;;4998559;28;20101;-66
2022/03/26 08:37:04;;;;;;;42.28;23.45;;;11.10;99.90;;;;;;4996686;28;20042;-66
2022/03/26 08:39:31;;;;;;;44.80;24.48;;;11.40;99.90;;;;;;4997494;28;20042;-66
2022/03/26 08:41:59;;;;;;;43.25;23.35;;;11.50;99.90;;;;;;4997550;28;20520;-67
2022/03/26 08:44:26;;;;;;;42.53;24.08;;;11.60;99.90;;;;;;5006010;28;20072;-66
2022/03/26 08:46:53;;;;;;;41.65;24.05;;;11.70;99.90;;;;;;5006251;28;20053;-64
2022/03/26 08:49:20;;;;;;;38.17;21.35;;;11.80;99.90;;;;;;5012826;28;20549;-67
2022/03/26 08:51:48;;;;;;;36.50;20.60;;;11.90;99.90;;;;;;4994150;28;20498;-66
2022/03/26 08:54:15;;;;;;;46.72;24.10;;;12.00;99.90;;;;;;4999601;28;20054;-66
2022/03/26 08:56:42;;;;;;;42.67;23.45;;;12.20;99.90;;;;;;4991914;28;20490;-66
2022/03/26 08:59:10;;;;;;;39.42;23.63;;;12.40;99.90;;;;;;4994751;28;20038;-65
2022/03/26 09:01:37;;;;;;;42.55;23.20;;;12.50;99.90;;;;;;4992228;28;20096;-64
2022/03/26 09:04:05;;;;;;;42.72;22.77;;;12.80;99.90;;;;;;4992391;28;20092;-66
2022/03/26 09:06:32;;;;;;;44.17;24.17;;;12.90;99.90;;;;;;4991592;28;20042;-66
2022/03/26 09:09:02;;;;;;;40.63;21.95;;;13.10;99.90;;;;;;4996192;28;20048;-66
2022/03/26 09:11:29;;;;;;;42.25;22.55;;;13.30;99.90;;;;;;5002943;28;20673;-66
2022/03/26 09:13:59;;;;;;;43.40;24.83;;;13.40;99.90;;;;;;4994199;28;20447;-66
2022/03/26 09:16:26;;;;;;;38.70;22.40;;;13.50;99.90;;;;;;5004766;28;20185;-66
2022/03/26 09:18:54;;;;;;;39.75;23.63;;;13.60;99.90;;;;;;5006304;28;20128;-66
2022/03/26 09:21:22;;;;;;;47.58;25.13;;;13.80;99.90;;;;;;5004568;28;20408;-66
2022/03/26 09:23:49;;;;;;;40.35;22.40;;;14.00;99.90;;;;;;4997103;28;20045;-66
2022/03/26 09:26:16;;;;;;;41.30;22.25;;;14.20;99.90;;;;;;4999989;28;20057;-66
2022/03/26 09:28:45;;;;;;;39.88;21.20;;;14.40;99.90;;;;;;5000026;28;20048;-66
2022/03/26 09:31:12;;;;;;;36.63;21.63;;;14.60;99.90;;;;;;4998473;28;20046;-66
2022/03/26 09:33:40;;;;;;;36.20;21.33;;;14.80;99.90;;;;;;5001629;28;20085;-66
2022/03/26 09:36:08;;;;;;;35.92;20.77;;;15.00;99.90;;;;;;5008774;28;20584;-66
2022/03/26 09:38:36;;;;;;;37.65;20.52;;;15.20;99.90;;;;;;4997866;28;20494;-66
2022/03/26 09:41:04;;;;;;;37.95;20.98;;;15.40;98.80;;;;;;4995680;28;20100;-66
2022/03/26 09:43:37;;;;;;;37.45;20.90;;;15.50;98.20;;;;;;4992211;28;20038;-66
2022/03/26 09:46:05;;;;;;;42.38;21.17;;;15.60;97.70;;;;;;4998323;28;20097;-65
2022/03/26 09:48:33;;;;;;;37.47;21.08;;;15.70;97.40;;;;;;4994490;28;20038;-65
2022/03/26 09:51:03;;;;;;;34.53;21.05;;;15.70;96.60;;;;;;4993221;28;20038;-66
2022/03/26 09:53:30;;;;;;;33.30;19.08;;;15.70;96.00;;;;;;5004727;28;20073;-65
2022/03/26 09:55:57;;;;;;;36.25;19.63;;;15.70;95.20;;;;;;4989902;28;20601;-66
2022/03/26 09:58:25;;;;;;;31.80;18.67;;;15.90;95.00;;;;;;4991842;28;20038;-65
2022/03/26 10:00:55;;;;;;;41.80;20.45;;;16.10;95.00;;;;;;4986957;28;20422;-67
2022/03/26 10:03:22;;;;;;;34.28;19.92;;;16.30;94.50;;;;;;4994631;28;20053;-67
2022/03/26 10:06:02;;;;;;;36.08;19.95;;;16.30;94.10;;;;;;4999164;28;20060;-66
2022/03/26 10:08:33;;;;;;;34.45;18.88;;;16.40;93.60;;;;;;5005752;28;20449;-66
2022/03/26 10:11:00;;;;;;;41.35;19.15;;;16.60;93.30;;;;;;4997358;28;20075;-65
2022/03/26 10:13:39;;;;;;;28.52;16.63;;;16.80;92.30;;;;;;4994527;28;20042;-66
2022/03/26 10:16:11;;;;;;;27.83;16.75;;;16.90;91.50;;;;;;4991746;28;20038;-66
2022/03/26 10:18:48;;;;;;;29.48;17.38;;;17.10;91.20;;;;;;4990581;28;20038;-66
2022/03/26 10:21:20;;;;;;;33.45;19.52;;;17.30;91.50;;;;;;4996910;28;20514;-67
2022/03/26 10:23:54;;;;;;;34.38;18.05;;;17.50;91.00;;;;;;4992286;28;20065;-67
2022/03/26 10:26:23;;;;;;;32.78;18.60;;;17.70;90.70;;;;;;4991893;28;20061;-67
2022/03/26 10:28:53;;;;;;;32.13;17.60;;;17.70;90.40;;;;;;4992105;28;20064;-65
2022/03/26 10:34:21;;;;;;;30.77;16.42;;;17.90;88.00;;;;;;4991242;28;20038;-66
2022/03/26 10:36:54;;;;;;;33.08;15.77;;;18.00;87.20;;;;;;4993156;28;20464;-66
2022/03/26 10:39:24;;;;;;;31.17;15.60;;;18.30;85.80;;;;;;4990018;28;20042;-66
2022/03/26 10:41:52;;;;;;;28.85;17.25;;;18.50;84.80;;;;;;4992286;28;20049;-66
2022/03/26 10:44:24;;;;;;;27.83;15.23;;;18.70;83.20;;;;;;4992763;28;20427;-66
2022/03/26 10:46:51;;;;;;;;;;;18.90;82.00;;;;;;4998289;28;20497;-65
2022/03/26 10:49:28;;;;;;;27.20;13.23;;;19.00;81.10;;;;;;4996115;28;19921;-66
2022/03/26 10:51:56;;;;;;;26.83;14.38;;;19.10;79.70;;;;;;4999472;28;20065;-65
2022/03/26 10:54:29;;;;;;;24.42;14.23;;;19.40;78.80;;;;;;4991728;28;20046;-66
2022/03/26 10:56:59;;;;;;;32.42;20.77;;;19.40;78.90;;;;;;4990219;28;20148;-66
2022/03/26 10:59:30;;;;;;;23.98;13.27;;;19.50;78.50;;;;;;4990385;28;20042;-67
2022/03/26 11:01:58;;;;;;;21.20;12.03;;;19.80;77.20;;;;;;4990825;28;20065;-66
2022/03/26 11:04:27;;;;;;;24.00;11.63;;;20.10;75.80;;;;;;4990558;28;20293;-66
2022/03/26 11:06:58;;;;;;;22.30;11.77;;;20.20;74.00;;;;;;4991427;28;20160;-66
2022/03/26 11:09:28;;;;;;;22.80;11.45;;;20.40;73.30;;;;;;5001349;28;20397;-65
2022/03/26 11:11:58;;;;;;;23.70;11.63;;;20.30;72.60;;;;;;4995014;28;20053;-65
2022/03/26 11:14:40;;;;;;;21.90;11.15;;;20.40;72.90;;;;;;4996128;28;20077;-66
2022/03/26 11:17:46;;;;;;;21.73;10.85;;;20.80;71.80;;;;;;4997922;28;20068;-66
2022/03/26 11:20:30;;;;;;;20.45;10.45;;;21.10;70.00;;;;;;4989784;28;20145;-66
2022/03/26 11:23:31;;;;;;;18.38;10.75;;;21.40;69.00;;;;;;4989795;28;20050;-66
2022/03/26 11:26:08;;;;;;;21.27;10.77;;;21.60;67.70;;;;;;4998258;28;20056;-66
2022/03/26 11:29:04;;;;;;;25.48;11.60;;;22.00;67.50;;;;;;4994046;28;20437;-66
2022/03/26 11:31:53;;;;;;;22.60;12.10;;;22.50;66.70;;;;;;4991143;28;20061;-64
2022/03/26 11:34:21;;;;;;;26.55;12.95;;;22.60;65.80;;;;;;5004058;28;20042;-67
2022/03/26 11:36:51;;;;;;;25.20;10.77;;;22.80;65.20;;;;;;5002076;28;20038;-64
2022/03/26 11:39:22;;;;;;;23.88;12.85;;;22.70;63.80;;;;;;4988876;28;20042;-65
2022/03/26 11:41:52;;;;;;;21.90;11.20;;;22.70;64.30;;;;;;4987446;28;20042;-65
2022/03/26 11:44:22;;;;;;;22.15;12.48;;;22.90;63.60;;;;;;4989804;28;20128;-66
2022/03/26 11:52:23;;;;;;;19.67;11.55;;;23.70;61.40;;;;;;4992135;28;20061;-66
2022/03/26 11:55:12;;;;;;;19.00;11.77;;;23.90;60.50;;;;;;4990731;28;20576;-66
2022/03/26 11:57:39;;;;;;;26.10;11.30;;;23.90;60.40;;;;;;4988768;28;20038;-66
2022/03/26 12:00:17;;;;;;;18.75;10.82;;;24.10;59.60;;;;;;4987891;28;20057;-66
2022/03/26 12:02:51;;;;;;;23.38;11.90;;;24.50;59.00;;;;;;4990565;28;20703;-66
2022/03/26 12:08:40;;;;;;;18.02;10.70;;;25.30;57.50;;;;;;5010222;28;20046;-66
2022/03/26 12:11:11;;;;;;;19.33;11.27;;;25.60;56.40;;;;;;5003517;28;20055;-66
2022/03/26 12:13:38;;;;;;;19.95;10.77;;;25.70;55.30;;;;;;4990173;28;20053;-65
2022/03/26 12:16:07;;;;;;;19.48;10.55;;;25.90;54.70;;;;;;4992913;28;20072;-66
2022/03/26 12:18:36;;;;;;;22.30;11.13;;;25.90;54.50;;;;;;5007460;28;20050;-66
2022/03/26 12:21:29;;;;;;;19.73;10.60;;;26.10;54.70;;;;;;4996233;28;20485;-66
2022/03/26 12:23:56;;;;;;;20.58;10.68;;;26.40;54.10;;;;;;5003295;28;20050;-66
2022/03/26 12:26:24;;;;;;;20.42;11.80;;;26.30;53.90;;;;;;4987672;28;20045;-65
2022/03/26 12:28:51;;;;;;;25.52;12.98;;;26.50;54.00;;;;;;5000911;28;20069;-66
2022/03/26 12:31:19;;;;;;;19.13;10.23;;;26.50;53.80;;;;;;4993503;28;20041;-67
2022/03/26 12:33:50;;;;;;;20.17;9.70;;;26.70;52.90;;;;;;5009112;28;20065;-66
2022/03/26 12:36:20;;;;;;;16.40;8.70;;;26.90;51.00;;;;;;4991648;28;20081;-66
2022/03/26 12:38:51;;;;;;;19.58;9.98;;;26.90;50.40;;;;;;4989504;28;20046;-66
2022/03/26 12:41:19;;;;;;;;;;;27.20;50.40;;;;;;4988698;28;20502;-66
2022/03/26 12:43:55;;;;;;;16.33;8.88;;;27.30;50.20;;;;;;4989870;28;19926;-66
2022/03/26 12:46:31;;;;;;;17.80;9.88;;;27.30;50.30;;;;;;4987751;28;20034;-65
2022/03/26 12:48:58;;;;;;;25.02;12.25;;;27.60;50.10;;;;;;4988464;28;20562;-65
2022/03/26 12:51:28;;;;;;;20.80;10.75;;;27.50;49.70;;;;;;5003775;28;20041;-66
2022/03/26 12:53:59;;;;;;;20.60;11.23;;;27.50;49.90;;;;;;5007585;28;20568;-66